createdAt,value
2019-01-16T00:00:58.102Z,19.60
2019-01-16T00:03:47.473Z,20.97
2019-01-16T00:06:40.327Z,19.03
2019-01-16T00:09:32.975Z,19.17
2019-01-16T00:12:22.757Z,18.53
2019-01-16T00:15:15.517Z,20.13
2019-01-16T00:18:16.888Z,17.90
2019-01-16T00:20:54.135Z,18.53
2019-01-16T00:23:49.562Z,18.17
2019-01-16T00:26:47.861Z,19.03
2019-01-16T00:29:46.739Z,19.53
2019-01-16T00:32:35.090Z,16.77
2019-01-16T00:35:31.215Z,17.07
2019-01-16T00:38:29.599Z,17.37
2019-01-16T00:41:16.532Z,15.53
2019-01-16T00:44:21.246Z,15.03
2019-01-16T00:47:22.495Z,16.13
2019-01-16T00:50:21.088Z,14.70
2019-01-16T00:53:10.457Z,16.30
2019-01-16T00:55:59.833Z,15.30
2019-01-16T00:58:52.066Z,16.90
2019-01-16T01:01:41.438Z,15.50
2019-01-16T01:04:40.231Z,16.33
2019-01-16T01:07:23.921Z,16.03
2019-01-16T01:10:03.429Z,15.60
2019-01-16T01:12:52.687Z,16.33
2019-01-16T01:15:51.370Z,15.20
2019-01-16T01:18:40.994Z,16.20
2019-01-16T01:21:29.297Z,16.97
2019-01-16T01:24:27.999Z,14.53
2019-01-16T01:27:16.536Z,15.60
2019-01-16T01:30:11.642Z,14.07
2019-01-16T01:33:06.341Z,15.10
2019-01-16T01:35:47.520Z,15.17
2019-01-16T01:38:38.528Z,14.60
2019-01-16T01:41:27.979Z,14.70
2019-01-16T01:44:17.886Z,14.70
2019-01-16T01:47:06.350Z,14.73
2019-01-16T01:49:54.786Z,13.90
2019-01-16T01:52:42.849Z,14.20
2019-01-16T01:55:35.987Z,13.67
2019-01-16T01:58:19.107Z,15.20
2019-01-16T02:01:01.445Z,14.43
2019-01-16T02:03:54.996Z,15.37
2019-01-16T02:07:01.464Z,16.00
2019-01-16T02:09:54.111Z,13.97
2019-01-16T02:12:43.490Z,15.50
2019-01-16T02:15:42.903Z,15.17
2019-01-16T02:18:32.262Z,15.20
2019-01-16T02:21:32.078Z,16.10
2019-01-16T02:24:20.426Z,14.77
2019-01-16T02:27:10.836Z,15.70
2019-01-16T02:30:03.675Z,15.40
2019-01-16T02:32:53.267Z,15.30
2019-01-16T02:35:48.767Z,15.10
2019-01-16T02:38:44.693Z,16.10
2019-01-16T02:41:46.353Z,15.40
2019-01-16T02:44:34.906Z,14.80
2019-01-16T02:47:36.770Z,14.90
2019-01-16T02:50:42.323Z,14.93
2019-01-16T02:53:47.670Z,14.60
2019-01-16T02:56:36.425Z,16.47
2019-01-16T02:59:29.073Z,15.23
2019-01-16T03:02:28.074Z,14.57
2019-01-16T03:05:23.385Z,14.90
2019-01-16T03:08:08.756Z,15.93
2019-01-16T03:11:03.850Z,15.20
2019-01-16T03:13:47.976Z,14.40
2019-01-16T03:16:45.601Z,13.03
2019-01-16T03:19:47.653Z,13.60
2019-01-16T03:22:35.817Z,14.83
2019-01-16T03:25:30.292Z,14.80
2019-01-16T03:28:19.710Z,13.40
2019-01-16T03:31:02.803Z,12.90
2019-01-16T03:33:49.622Z,14.43
2019-01-16T03:36:38.354Z,14.00
2019-01-16T03:39:29.363Z,14.27
2019-01-16T03:42:26.720Z,14.00
2019-01-16T03:45:14.658Z,14.50
2019-01-16T03:48:07.716Z,14.43
2019-01-16T03:51:03.028Z,12.97
2019-01-16T03:53:49.835Z,14.37
2019-01-16T03:56:54.531Z,13.90
2019-01-16T03:59:49.985Z,14.57
2019-01-16T04:02:31.191Z,14.20
2019-01-16T04:05:32.826Z,14.77
2019-01-16T04:08:31.411Z,13.53
2019-01-16T04:11:24.266Z,13.40
2019-01-16T04:14:22.372Z,13.17
2019-01-16T04:17:10.382Z,13.47
2019-01-16T04:20:01.857Z,13.83
2019-01-16T04:23:03.581Z,13.67
2019-01-16T04:25:56.520Z,14.40
2019-01-16T04:28:48.757Z,12.20
2019-01-16T04:31:30.465Z,13.17
2019-01-16T04:34:18.289Z,12.87
2019-01-16T04:37:19.947Z,14.70
2019-01-16T04:40:00.819Z,13.30
2019-01-16T04:42:49.066Z,14.00
2019-01-16T04:45:35.363Z,13.33
2019-01-16T04:48:32.131Z,13.97
2019-01-16T04:51:24.669Z,12.73
2019-01-16T04:54:14.129Z,12.50
2019-01-16T04:57:15.137Z,13.50
2019-01-16T05:00:16.833Z,13.00
2019-01-16T05:03:07.245Z,13.20
2019-01-16T05:06:06.022Z,14.80
2019-01-16T05:08:58.674Z,13.40
2019-01-16T05:11:46.817Z,12.83
2019-01-16T05:14:34.525Z,12.93
2019-01-16T05:17:23.006Z,13.00
2019-01-16T05:20:11.040Z,12.50
2019-01-16T05:23:00.516Z,13.10
2019-01-16T05:25:41.590Z,12.47
2019-01-16T05:28:24.725Z,12.40
2019-01-16T05:31:08.485Z,13.00
2019-01-16T05:34:03.764Z,12.53
2019-01-16T05:36:56.921Z,12.90
2019-01-16T05:39:50.740Z,12.80
2019-01-16T05:42:39.047Z,13.00
2019-01-16T05:45:27.016Z,13.57
2019-01-16T05:48:06.937Z,13.10
2019-01-16T05:50:55.265Z,12.70
2019-01-16T05:53:39.025Z,12.57
2019-01-16T05:56:28.396Z,11.70
2019-01-16T05:59:14.287Z,12.17
2019-01-16T06:02:01.917Z,12.10
2019-01-16T06:04:54.126Z,11.30
2019-01-16T06:07:56.739Z,12.37
2019-01-16T06:10:45.512Z,12.70
2019-01-16T06:13:40.806Z,11.57
2019-01-16T06:16:26.137Z,11.57
2019-01-16T06:19:18.533Z,11.50
2019-01-16T06:22:25.920Z,12.23
2019-01-16T06:25:06.885Z,11.30
2019-01-16T06:28:11.422Z,10.53
2019-01-16T06:31:03.660Z,10.60
2019-01-16T06:34:05.119Z,10.00
2019-01-16T06:36:51.568Z,9.40
2019-01-16T06:39:43.972Z,10.40
2019-01-16T06:42:31.383Z,10.20
2019-01-16T06:45:19.326Z,10.80
2019-01-16T06:48:07.882Z,11.63
2019-01-16T06:50:56.022Z,11.03
2019-01-16T06:53:40.503Z,11.00
2019-01-16T06:56:28.415Z,10.73
2019-01-16T06:59:19.253Z,11.27
2019-01-16T07:02:11.255Z,10.20
2019-01-16T07:04:59.513Z,9.87
2019-01-16T07:08:04.746Z,11.30
2019-01-16T07:10:57.393Z,11.17
2019-01-16T07:13:46.767Z,10.90
2019-01-16T07:16:29.587Z,10.47
2019-01-16T07:19:19.160Z,10.40
2019-01-16T07:22:23.687Z,11.53
2019-01-16T07:25:12.956Z,10.90
2019-01-16T07:28:00.557Z,11.77
2019-01-16T07:30:50.074Z,12.10
2019-01-16T07:33:33.808Z,11.17
2019-01-16T07:36:22.253Z,12.97
2019-01-16T07:39:17.573Z,12.37
2019-01-16T07:42:05.205Z,12.90
2019-01-16T07:44:57.494Z,12.17
2019-01-16T07:47:46.071Z,11.47
2019-01-16T07:50:35.468Z,11.93
2019-01-16T07:53:23.150Z,11.90
2019-01-16T07:56:15.337Z,12.57
2019-01-16T07:59:07.672Z,13.00
2019-01-16T08:02:12.204Z,12.17
2019-01-16T08:05:13.045Z,12.57
2019-01-16T08:07:55.191Z,12.07
2019-01-16T08:10:42.771Z,12.13
2019-01-16T08:13:26.613Z,12.17
2019-01-16T08:16:34.008Z,13.37
2019-01-16T08:19:29.728Z,12.60
2019-01-16T08:22:21.612Z,10.87
2019-01-16T08:25:26.289Z,11.93
2019-01-16T08:28:15.480Z,11.07
2019-01-16T08:31:08.108Z,11.43
2019-01-16T08:33:55.689Z,11.20
2019-01-16T08:36:46.685Z,10.63
2019-01-16T08:39:25.231Z,10.97
2019-01-16T08:42:29.893Z,11.43
2019-01-16T08:45:22.050Z,10.43
2019-01-16T08:48:09.286Z,10.93
2019-01-16T08:50:58.740Z,10.30
2019-01-16T08:53:59.937Z,9.67
2019-01-16T08:56:50.217Z,9.23
2019-01-16T08:59:55.005Z,9.77
2019-01-16T09:03:08.967Z,8.80
2019-01-16T09:06:07.158Z,8.70
2019-01-16T09:08:55.085Z,8.40
2019-01-16T09:11:39.645Z,7.83
2019-01-16T09:14:43.717Z,6.60
2019-01-16T09:17:32.837Z,7.40
2019-01-16T09:20:24.695Z,7.30
2019-01-16T09:23:16.903Z,7.10
2019-01-16T09:26:09.545Z,7.07
2019-01-16T09:28:58.657Z,6.90
2019-01-16T09:31:47.257Z,6.67
2019-01-16T09:34:45.590Z,6.37
2019-01-16T09:37:32.965Z,6.37
2019-01-16T09:40:21.469Z,5.60
2019-01-16T09:43:04.422Z,5.90
2019-01-16T09:45:52.630Z,7.03
2019-01-16T09:48:40.225Z,5.60
2019-01-16T09:51:38.547Z,5.70
2019-01-16T09:54:22.965Z,6.53
2019-01-16T09:57:14.697Z,6.17
2019-01-16T10:00:02.324Z,6.67
2019-01-16T10:02:57.832Z,7.30
2019-01-16T10:05:46.186Z,6.33
2019-01-16T10:08:34.734Z,6.40
2019-01-16T10:11:30.864Z,7.10
2019-01-16T10:14:23.514Z,7.20
2019-01-16T10:17:28.448Z,7.60
2019-01-16T10:20:18.025Z,8.17
2019-01-16T10:23:18.642Z,7.70
2019-01-16T10:26:06.499Z,8.10
2019-01-16T10:28:54.124Z,8.20
2019-01-16T10:31:43.369Z,8.83
2019-01-16T10:34:32.884Z,8.50
2019-01-16T10:37:28.214Z,8.33
2019-01-16T10:40:19.665Z,8.50
2019-01-16T10:43:08.781Z,8.60
2019-01-16T10:46:00.815Z,8.00
2019-01-16T10:48:56.177Z,7.40
2019-01-16T10:51:43.692Z,7.67
2019-01-16T10:54:32.008Z,8.00
2019-01-16T10:57:27.519Z,7.23
2019-01-16T11:00:16.894Z,6.83
2019-01-16T11:03:00.324Z,7.37
2019-01-16T11:05:52.481Z,7.03
2019-01-16T11:08:40.500Z,7.67
2019-01-16T11:11:36.838Z,7.33
2019-01-16T11:14:26.617Z,6.80
2019-01-16T11:20:30.358Z,7.57
2019-01-16T11:23:34.898Z,7.40
2019-01-16T11:26:33.884Z,7.13
2019-01-16T11:29:21.708Z,8.40
2019-01-16T11:32:09.556Z,8.00
2019-01-16T11:34:57.500Z,8.47
2019-01-16T11:37:58.449Z,8.13
2019-01-16T11:40:43.885Z,7.50
2019-01-16T11:43:41.774Z,7.30
2019-01-16T11:46:45.912Z,8.20
2019-01-16T11:49:33.781Z,8.77
2019-01-16T11:52:20.808Z,7.83
2019-01-16T11:55:09.952Z,8.23
2019-01-16T11:58:08.364Z,8.80
2019-01-16T12:00:54.704Z,8.53
2019-01-16T12:03:42.638Z,9.97
2019-01-16T12:06:46.962Z,9.80
2019-01-16T12:09:38.610Z,9.80
2019-01-16T12:12:33.737Z,10.30
2019-01-16T12:15:22.680Z,10.00
2019-01-16T12:18:14.426Z,9.90
2019-01-16T12:21:02.354Z,9.97
2019-01-16T12:24:06.569Z,9.67
2019-01-16T12:27:00.366Z,9.70
2019-01-16T12:30:08.379Z,9.33
2019-01-16T12:32:51.319Z,10.43
2019-01-16T12:35:38.998Z,10.43
2019-01-16T12:38:24.948Z,10.30
2019-01-16T12:41:20.202Z,10.90
2019-01-16T12:44:09.778Z,10.50
2019-01-16T12:46:58.777Z,9.90
2019-01-16T12:49:48.221Z,10.80
2019-01-16T12:52:28.527Z,10.73
2019-01-16T12:55:12.130Z,11.13
2019-01-16T12:58:13.539Z,10.03
2019-01-16T13:00:52.966Z,10.83
2019-01-16T13:03:50.058Z,10.87
2019-01-16T13:06:58.068Z,11.50
2019-01-16T13:09:59.519Z,11.00
2019-01-16T13:12:52.168Z,10.27
2019-01-16T13:15:41.542Z,10.77
2019-01-16T13:18:42.676Z,9.87
2019-01-16T13:21:30.731Z,10.33
2019-01-16T13:24:21.954Z,10.80
2019-01-16T13:27:23.193Z,10.47
2019-01-16T13:30:10.014Z,9.63
2019-01-16T13:33:02.155Z,10.30
2019-01-16T13:35:57.380Z,10.57
2019-01-16T13:38:50.523Z,10.63
2019-01-16T13:41:39.895Z,9.87
2019-01-16T13:44:32.563Z,9.80
2019-01-16T13:47:17.064Z,8.23
2019-01-16T13:50:06.507Z,8.83
2019-01-16T13:52:54.546Z,9.57
2019-01-16T13:55:43.126Z,8.20
2019-01-16T13:58:31.334Z,9.20
2019-01-16T14:01:20.794Z,8.47
2019-01-16T14:04:16.418Z,8.40
2019-01-16T14:07:05.173Z,9.30
2019-01-16T14:09:53.026Z,8.80
2019-01-16T14:12:35.601Z,8.60
2019-01-16T14:15:25.420Z,8.57
2019-01-16T14:18:24.826Z,8.60
2019-01-16T14:21:13.049Z,8.53
2019-01-16T14:24:02.694Z,9.07
2019-01-16T14:27:05.157Z,8.23
2019-01-16T14:29:54.718Z,9.40
2019-01-16T14:32:46.757Z,8.20
2019-01-16T14:35:36.122Z,8.30
2019-01-16T14:38:31.637Z,9.20
2019-01-16T14:41:11.961Z,7.37
2019-01-16T14:44:01.397Z,8.83
2019-01-16T14:46:49.640Z,7.10
2019-01-16T14:49:28.820Z,7.60
2019-01-16T14:52:30.514Z,8.00
2019-01-16T14:55:22.320Z,8.37
2019-01-16T14:58:03.645Z,7.70
2019-01-16T15:01:11.084Z,7.90
2019-01-16T15:04:02.168Z,8.37
2019-01-16T15:06:42.141Z,7.10
2019-01-16T15:09:27.220Z,8.40
2019-01-16T15:12:22.474Z,8.00
2019-01-16T15:15:11.025Z,8.10
2019-01-16T15:20:45.276Z,7.00
2019-01-16T15:23:43.864Z,7.17
2019-01-16T15:26:36.309Z,7.80
2019-01-16T15:29:25.713Z,6.83
2019-01-16T15:32:11.145Z,6.80
2019-01-16T15:35:01.155Z,7.70
2019-01-16T15:37:53.499Z,7.73
2019-01-16T15:40:42.962Z,7.17
2019-01-16T15:43:24.038Z,7.43
2019-01-16T15:46:13.512Z,7.43
2019-01-16T15:49:08.523Z,7.70
2019-01-16T15:51:57.738Z,8.40
2019-01-16T15:54:56.389Z,8.17
2019-01-16T15:57:46.805Z,7.77
2019-01-16T16:00:35.987Z,7.57
2019-01-16T16:03:38.430Z,7.53
2019-01-16T16:06:40.785Z,8.90
2019-01-16T16:09:40.126Z,9.43
2019-01-16T16:12:30.341Z,9.93
2019-01-16T16:15:19.865Z,9.37
2019-01-16T16:18:06.973Z,10.13
2019-01-16T16:20:55.129Z,10.43
2019-01-16T16:23:56.582Z,10.30
2019-01-16T16:26:44.613Z,9.60
2019-01-16T16:29:46.084Z,10.40
2019-01-16T16:35:04.156Z,9.10
2019-01-16T16:38:02.530Z,10.90
2019-01-16T16:40:58.345Z,9.87
2019-01-16T16:43:53.247Z,10.63
2019-01-16T16:46:46.099Z,11.20
2019-01-16T16:49:37.845Z,11.33
2019-01-16T16:52:27.657Z,9.70
2019-01-16T16:55:28.254Z,10.90
2019-01-16T16:58:28.975Z,9.30
2019-01-16T17:01:17.035Z,9.50
2019-01-16T17:04:09.134Z,9.27
2019-01-16T17:06:56.737Z,7.90
2019-01-16T17:09:50.382Z,9.17
2019-01-16T17:12:47.015Z,8.33
2019-01-16T17:15:56.056Z,8.60
2019-01-16T17:18:44.862Z,9.37
2019-01-16T17:25:17.329Z,7.80
2019-01-16T17:28:19.452Z,7.97
2019-01-16T17:31:15.673Z,8.60
2019-01-16T17:34:23.437Z,8.00
2019-01-16T17:37:15.207Z,9.00
2019-01-16T17:40:19.483Z,9.03
2019-01-16T17:43:10.286Z,8.70
2019-01-16T17:46:18.092Z,8.53
2019-01-16T17:48:58.256Z,8.47
2019-01-16T17:51:40.392Z,8.50
2019-01-16T17:54:30.726Z,8.70
2019-01-16T17:57:20.307Z,7.53
2019-01-16T18:00:09.066Z,8.00
2019-01-16T18:03:04.842Z,8.33
2019-01-16T18:06:05.005Z,7.70
2019-01-16T18:09:09.103Z,7.13
2019-01-16T18:12:04.008Z,8.17
2019-01-16T18:14:56.264Z,8.13
2019-01-16T18:17:45.022Z,7.13
2019-01-16T18:20:52.825Z,7.43
2019-01-16T18:23:42.407Z,7.03
2019-01-16T18:26:26.180Z,7.63
2019-01-16T18:29:19.808Z,7.50
2019-01-16T18:32:15.454Z,7.77
2019-01-16T18:34:56.230Z,7.10
2019-01-16T18:37:54.700Z,7.60
2019-01-16T18:40:49.163Z,7.07
2019-01-16T18:43:39.440Z,6.93
2019-01-16T18:46:35.308Z,6.50
2019-01-16T18:49:33.691Z,7.73
2019-01-16T18:52:35.557Z,6.70
2019-01-16T18:55:24.927Z,6.77
2019-01-16T18:58:13.602Z,6.40
2019-01-16T19:01:01.738Z,7.10
2019-01-16T19:03:59.608Z,7.40
2019-01-16T19:06:47.752Z,8.00
2019-01-16T19:09:43.579Z,7.00
2019-01-16T19:12:38.787Z,7.07
2019-01-16T19:15:33.276Z,6.73
2019-01-16T19:18:28.180Z,7.03
2019-01-16T19:21:17.480Z,6.47
2019-01-16T19:24:09.585Z,7.20
2019-01-16T19:26:53.312Z,6.87
2019-01-16T19:29:54.886Z,6.50
2019-01-16T19:32:56.156Z,6.67
2019-01-16T19:35:51.443Z,6.90
2019-01-16T19:38:59.040Z,7.20
2019-01-16T19:41:48.386Z,6.80
2019-01-16T19:44:35.942Z,7.20
2019-01-16T19:47:37.401Z,7.40
2019-01-16T19:50:34.148Z,7.20
2019-01-16T19:53:18.100Z,7.40
2019-01-16T19:56:13.807Z,6.87
2019-01-16T19:58:57.042Z,7.10
2019-01-16T20:01:45.796Z,8.47
2019-01-16T20:04:38.059Z,7.57
2019-01-16T20:07:46.655Z,7.60
2019-01-16T20:10:38.894Z,7.77
2019-01-16T20:13:27.858Z,7.97
2019-01-16T20:16:15.998Z,8.20
2019-01-16T20:19:04.925Z,7.80
2019-01-16T20:21:59.862Z,8.93
2019-01-16T20:24:43.608Z,8.60
2019-01-16T20:27:50.900Z,8.63
2019-01-16T20:30:43.542Z,8.80
2019-01-16T20:33:32.320Z,9.00
2019-01-16T20:36:21.074Z,7.80
2019-01-16T20:39:08.999Z,8.73
2019-01-16T20:42:10.859Z,10.00
2019-01-16T20:44:59.002Z,9.43
2019-01-16T20:47:55.132Z,9.67
2019-01-16T20:50:47.372Z,9.40
2019-01-16T20:53:33.304Z,10.10
2019-01-16T20:56:33.022Z,11.03
2019-01-16T20:59:21.119Z,9.47
2019-01-16T21:02:04.568Z,10.43
2019-01-16T21:04:53.833Z,9.57
2019-01-16T21:07:49.683Z,9.10
2019-01-16T21:10:39.517Z,9.60
2019-01-16T21:13:28.593Z,9.40
2019-01-16T21:16:09.373Z,8.50
2019-01-16T21:19:08.983Z,8.47
2019-01-16T21:22:03.263Z,9.73
2019-01-16T21:25:07.584Z,8.20
2019-01-16T21:27:57.364Z,9.43
2019-01-16T21:30:45.507Z,9.23
2019-01-16T21:33:34.060Z,9.70
2019-01-16T21:36:28.144Z,9.73
2019-01-16T21:39:27.067Z,10.00
2019-01-16T21:42:25.730Z,9.90
2019-01-16T21:45:33.327Z,9.97
2019-01-16T21:48:40.943Z,9.27
2019-01-16T21:51:34.616Z,9.40
2019-01-16T21:54:20.606Z,10.10
2019-01-16T21:57:21.442Z,9.70
2019-01-16T22:00:09.279Z,9.27
2019-01-16T22:03:02.019Z,9.93
2019-01-16T22:05:49.962Z,9.53
2019-01-16T22:08:42.147Z,9.80
2019-01-16T22:11:37.514Z,8.97
2019-01-16T22:14:27.288Z,9.53
2019-01-16T22:17:22.604Z,9.13
2019-01-16T22:20:02.231Z,8.70
2019-01-16T22:23:07.711Z,9.27
2019-01-16T22:25:57.064Z,8.97
2019-01-16T22:28:58.724Z,9.50
2019-01-16T22:31:47.303Z,9.57
2019-01-16T22:34:27.435Z,8.93
2019-01-16T22:37:26.326Z,9.37
2019-01-16T22:40:07.957Z,8.97
2019-01-16T22:42:55.856Z,9.00
2019-01-16T22:45:43.792Z,9.53
2019-01-16T22:48:32.348Z,10.03
2019-01-16T22:51:20.284Z,9.20
2019-01-16T22:54:09.245Z,12.10
2019-01-16T22:57:09.372Z,10.00
2019-01-16T22:59:58.446Z,9.03
2019-01-16T23:02:51.287Z,9.80
2019-01-16T23:05:39.430Z,9.47
2019-01-16T23:08:20.832Z,9.10
2019-01-16T23:11:10.596Z,9.80
2019-01-16T23:14:17.991Z,9.93
2019-01-16T23:17:10.433Z,11.03
2019-01-16T23:20:14.760Z,10.90
2019-01-16T23:23:02.381Z,10.70
2019-01-16T23:25:57.800Z,10.30
2019-01-16T23:28:53.732Z,10.70
2019-01-16T23:31:42.893Z,11.00
2019-01-16T23:34:41.482Z,11.80
2019-01-16T23:37:42.937Z,11.07
2019-01-16T23:40:32.655Z,12.07
2019-01-16T23:43:31.119Z,12.47
2019-01-16T23:46:13.006Z,12.40
2019-01-16T23:49:08.069Z,12.33
2019-01-16T23:51:57.967Z,12.73
2019-01-16T23:54:37.938Z,12.70
2019-01-16T23:57:38.369Z,13.57
